Highland, OH (45132)

3:55 PM EDT on August 26, 2016 (GMT -0400)
APRSWXNET | | Change Station
Active Advisory: Special Statement

Elev 1024 ft 39.43 °N, 83.55 °W | Updated 26 minutes ago

Overcast
Overcast
89 °F
Feels Like 99 °F
N
3
Wind Variable Wind from SW
Gusts 9.0 mph

Today
High -- | Low -- °F
--% Chance of Precip.
Yesterday
High -- | Low -- °F
Precip. -- in
Pressure 30.09 in
Visibility 10.0 miles
Clouds Mostly Cloudy 3500 ft
Mostly Cloudy 4900 ft
Overcast 5500 ft
Heat Index 99 °F
Dew Point 75 °F
Humidity 63%
Rainfall in
Snow Depth Not available.
6:57 AM 8:13 PM
Waning Crescent, 32% visible
METAR KILN 261854Z AUTO 00000KT 10SM BKN035 BKN049 OVC055 29/23 A3013 RMK AO2 SLP189 T02940233
Pressure 30.09 in
Visibility 10.0 miles
Clouds Mostly Cloudy 3500 ft
Mostly Cloudy 4900 ft
Overcast 5500 ft
Heat Index 99 °F
Dew Point 75 °F
Humidity 63%
Rainfall in
Snow Depth Not available.
6:57 AM 8:13 PM
Waning Crescent, 32% visible
METAR KILN 261854Z AUTO 00000KT 10SM BKN035 BKN049 OVC055 29/23 A3013 RMK AO2 SLP189 T02940233

10-Day Weather Forecast

Almanac

Astronomy

Aug. 26, 2016 Rise Set
Actual Time
Civil Twilight
Nautical Twilight
Astronomical Twilight
Moon
Length of Visible Light
Length of Day
Tomorrow will be .
, % of the Moon is Illuminated

Today's Extremes

State Highs State Lows

Community

WunderPhotos

Upload Photos

1,935,195 photos uploaded!

WunderBlog® & News

Nearby

Air Quality

  Air Quality AQ Index Pollutant
Not available.

Snow Depth

Station Depth Elevation

Earthquake Activity

City Distance Mag. Time & Date
Minimum magnitude displayed is 2.5.

Coastal Water Temperatures

Place Temperature

Stations

Nearby Weather Stations

Station Location Temp. Windchill Dew Point Humidity Wind Precip. Elev Updated Type
                   

Watches & Warnings

Special Statement
Issued: 6:12 AM EDT Aug. 26, 2016 – National Weather Service

... Warm and humid conditions to continue today...

Temperatures in the upper 80s to around 90 degrees will combine
with high humidities to produce heat indices in the mid and upper
90s this afternoon.

If possible... spend more time in air conditioned or well
ventilated places this afternoon. If you will be outside... wear
light weight and loose fitting clothing and drink plenty of water.


AR

612 am EDT Fri Aug 26 2016

... Warm and humid conditions to continue today...

Temperatures in the upper 80s to around 90 degrees will combine
with high humidities to produce heat indices in the mid and upper
90s this afternoon.

If possible... spend more time in air conditioned or well
ventilated places this afternoon. If you will be outside... wear
light weight and loose fitting clothing and drink plenty of water.


AR